Time;durP1;ratioP1;P1;durP2;ratioP2;P2;SDS_P1;SDS_P2;PMS_P1;PMS_P2;Temp;Humidity;BMP_temperature;BMP_pressure;BME280_temperature;BME280_humidity;BME280_pressure;Samples;Min_cycle;Max_cycle;Signal;HPM_P1;HPM_P2
2022/07/08 00:01:04;;;;;;;4.50;1.50;;;;;;;17.01;70.66;100621.06;105762;1273;25362;-51
2022/07/08 00:03:33;;;;;;;4.20;1.50;;;;;;;16.99;70.72;100623.58;105876;1274;25100;-51
2022/07/08 00:06:01;;;;;;;6.40;1.60;;;;;;;16.96;70.79;100625.23;105783;1273;22554;-53
2022/07/08 00:08:31;;;;;;;5.30;1.40;;;;;;;16.93;71.01;100627.77;105735;1273;22547;-53
2022/07/08 00:10:59;;;;;;;6.20;1.40;;;;;;;16.89;71.40;100627.02;105609;1273;24406;-52
2022/07/08 00:13:29;;;;;;;4.60;1.60;;;;;;;16.85;71.76;100631.23;105768;1273;25353;-52
2022/07/08 00:15:58;;;;;;;6.90;1.80;;;;;;;16.83;72.09;100628.66;105979;1274;22560;-53
2022/07/08 00:18:26;;;;;;;6.40;1.80;;;;;;;16.81;72.30;100627.84;105987;1274;22564;-54
2022/07/08 00:20:55;;;;;;;4.90;2.10;;;;;;;16.81;72.25;100627.59;105950;1273;25232;-53
2022/07/08 00:23:23;;;;;;;7.10;2.20;;;;;;;16.80;72.49;100623.84;105888;1273;22563;-52
2022/07/08 00:25:52;;;;;;;6.00;1.80;;;;;;;16.80;72.74;100628.15;105690;1273;24264;-53
2022/07/08 00:28:21;;;;;;;5.10;1.70;;;;;;;16.80;72.86;100628.87;105711;1273;25364;-49
2022/07/08 00:30:50;;;;;;;5.30;2.20;;;;;;;16.80;72.88;100634.25;105702;1273;24155;-52
2022/07/08 00:33:19;;;;;;;5.10;2.10;;;;;;;16.80;73.20;100630.45;105558;1273;24221;-52
2022/07/08 00:35:49;;;;;;;7.00;2.40;;;;;;;16.80;73.22;100633.94;105880;1273;22571;-53
2022/07/08 00:38:17;;;;;;;5.80;2.10;;;;;;;16.80;73.42;100638.41;105870;1273;25364;-50
2022/07/08 00:40:46;;;;;;;7.10;2.70;;;;;;;16.79;73.73;100638.11;105605;1273;25506;-52
2022/07/08 00:43:27;;;;;;;9.20;3.00;;;;;;;16.79;73.93;100636.26;105706;1273;22715;-53
2022/07/08 00:45:56;;;;;;;8.30;3.00;;;;;;;16.78;73.99;100629.89;105560;1273;25316;-53
2022/07/08 00:48:24;;;;;;;7.90;3.00;;;;;;;16.78;74.04;100629.59;105633;1273;25363;-50
2022/07/08 00:50:54;;;;;;;7.10;2.60;;;;;;;16.78;74.20;100633.17;105843;1273;22554;-51
2022/07/08 00:53:23;;;;;;;9.60;3.10;;;;;;;16.78;74.46;100632.04;105701;1273;23065;-54
2022/07/08 00:55:53;;;;;;;7.70;3.00;;;;;;;16.78;74.62;100634.25;105611;1273;24303;-50
2022/07/08 00:58:22;;;;;;;7.20;2.60;;;;;;;16.77;74.65;100634.71;105902;1274;22556;-52
2022/07/08 01:00:52;;;;;;;7.40;3.10;;;;;;;16.77;74.69;100637.94;105946;1274;22541;-53
2022/07/08 01:03:22;;;;;;;9.80;3.30;;;;;;;16.77;74.87;100638.91;106070;1272;25406;-50
2022/07/08 01:05:51;;;;;;;8.70;3.40;;;;;;;16.78;75.10;100634.91;105567;1273;22630;-51
2022/07/08 01:08:20;;;;;;;9.60;3.10;;;;;;;16.76;75.04;100634.97;105648;1273;25320;-52
2022/07/08 01:10:49;;;;;;;8.60;3.60;;;;;;;16.75;75.31;100640.09;105709;1274;22562;-50
2022/07/08 01:13:18;;;;;;;8.60;3.30;;;;;;;16.72;75.61;100642.66;105737;1273;25260;-49
2022/07/08 01:15:48;;;;;;;6.30;2.80;;;;;;;16.70;75.60;100641.52;105999;1273;24399;-50
2022/07/08 01:18:23;;;;;;;11.80;3.70;;;;;;;16.70;75.62;100646.50;105827;1273;22564;-49
2022/07/08 01:20:52;;;;;;;10.50;3.50;;;;;;;16.71;75.72;100644.09;105625;1274;22554;-52
2022/07/08 01:23:21;;;;;;;8.00;3.00;;;;;;;16.72;75.84;100647.41;105760;1273;26266;-53
2022/07/08 01:25:52;;;;;;;7.60;3.20;;;;;;;16.73;75.80;100643.89;105678;1273;25584;-53
2022/07/08 01:28:21;;;;;;;9.00;3.70;;;;;;;16.73;76.15;100650.75;105882;1273;22541;-52
2022/07/08 01:30:51;;;;;;;8.90;3.90;;;;;;;16.72;76.12;100654.73;105832;1274;25362;-53
2022/07/08 01:33:20;;;;;;;9.70;3.60;;;;;;;16.72;76.28;100652.34;105627;1273;22564;-53
2022/07/08 01:35:49;;;;;;;7.60;3.00;;;;;;;16.71;76.34;100650.80;105922;1274;22665;-51
2022/07/08 01:38:17;;;;;;;6.80;2.90;;;;;;;16.70;76.49;100652.80;105974;1273;26463;-51
2022/07/08 01:40:47;;;;;;;9.30;3.60;;;;;;;16.70;76.62;100651.26;105889;1273;25365;-51
2022/07/08 01:43:16;;;;;;;15.50;4.20;;;;;;;16.69;76.82;100650.29;105875;1274;22534;-49
2022/07/08 01:45:44;;;;;;;9.40;3.30;;;;;;;16.68;77.14;100651.52;105657;1274;23197;-51
2022/07/08 01:48:14;;;;;;;8.40;3.30;;;;;;;16.65;76.96;100653.77;105768;1272;22576;-50
2022/07/08 01:50:43;;;;;;;9.20;3.30;;;;;;;16.63;77.42;100659.15;106014;1274;25486;-51
2022/07/08 01:53:12;;;;;;;7.80;3.00;;;;;;;16.61;77.50;100659.91;105938;1273;23294;-50
2022/07/08 01:55:41;;;;;;;9.00;3.90;;;;;;;16.60;77.80;100660.43;105881;1273;22702;-53
2022/07/08 01:58:10;;;;;;;8.20;3.90;;;;;;;16.58;77.74;100662.58;105773;1273;22560;-52
2022/07/08 02:00:39;;;;;;;8.60;3.60;;;;;;;16.57;77.96;100665.10;105867;1272;22698;-53
2022/07/08 02:03:08;;;;;;;9.40;4.20;;;;;;;16.55;78.22;100663.18;105948;1273;22776;-50
2022/07/08 02:05:37;;;;;;;9.10;3.80;;;;;;;16.53;78.24;100670.26;105739;1273;25557;-52
2022/07/08 02:08:06;;;;;;;11.20;4.20;;;;;;;16.51;78.65;100669.89;105631;1273;26525;-50
2022/07/08 02:13:19;;;;;;;10.50;4.10;;;;;;;16.43;79.01;100675.80;105645;1273;24311;-51
2022/07/08 02:15:49;;;;;;;10.00;4.20;;;;;;;16.39;79.34;100677.27;105751;1273;24216;-52
2022/07/08 02:18:17;;;;;;;10.50;3.90;;;;;;;16.36;79.56;100681.46;105729;1273;22570;-52
2022/07/08 02:20:46;;;;;;;8.20;3.60;;;;;;;16.33;79.76;100686.38;105968;1274;24276;-49
2022/07/08 02:23:15;;;;;;;10.70;4.40;;;;;;;16.31;79.84;100688.00;105859;1273;25251;-52
2022/07/08 02:25:44;;;;;;;8.90;4.20;;;;;;;16.29;79.98;100687.24;105794;1273;25371;-50
2022/07/08 02:28:13;;;;;;;9.10;4.10;;;;;;;16.27;80.31;100691.33;105923;1273;22727;-52
2022/07/08 02:30:42;;;;;;;9.00;4.00;;;;;;;16.25;80.36;100688.10;106010;1273;22555;-51
2022/07/08 02:33:11;;;;;;;8.50;4.50;;;;;;;16.23;80.40;100691.01;105768;1273;22654;-50
2022/07/08 02:35:40;;;;;;;9.70;4.60;;;;;;;16.20;80.48;100693.77;105710;1270;25245;-53
2022/07/08 02:38:08;;;;;;;10.10;5.00;;;;;;;16.18;80.76;100693.80;105630;1273;26527;-52
2022/07/08 02:40:37;;;;;;;10.00;4.10;;;;;;;16.15;80.87;100693.91;105787;1273;22547;-53
2022/07/08 02:43:09;;;;;;;10.50;5.10;;;;;;;16.13;80.91;100696.55;105897;1273;24425;-52
2022/07/08 02:45:39;;;;;;;8.70;4.20;;;;;;;16.10;81.19;100700.85;105811;1273;22691;-52
2022/07/08 02:48:08;;;;;;;12.60;5.00;;;;;;;16.07;81.20;100705.09;105951;1273;25252;-51
2022/07/08 02:50:38;;;;;;;9.30;5.20;;;;;;;16.03;81.32;100708.75;105959;1273;22553;-51
2022/07/08 02:53:06;;;;;;;12.50;5.10;;;;;;;15.99;81.43;100710.23;105989;1273;25404;-53
2022/07/08 02:55:35;;;;;;;9.40;4.50;;;;;;;15.95;81.67;100714.10;105792;1273;22702;-50
2022/07/08 02:58:04;;;;;;;11.10;5.30;;;;;;;15.93;81.83;100711.05;105816;1273;22701;-51
2022/07/08 03:00:33;;;;;;;11.40;5.20;;;;;;;15.91;81.92;100708.40;105672;1273;22570;-50
2022/07/08 03:03:02;;;;;;;11.30;5.60;;;;;;;15.90;82.12;100711.92;105693;1274;25364;-52
2022/07/08 03:05:31;;;;;;;12.10;5.60;;;;;;;15.88;82.27;100713.80;105566;1273;22705;-49
2022/07/08 03:08:00;;;;;;;11.20;4.60;;;;;;;15.87;82.45;100710.98;105646;1273;26510;-48
2022/07/08 03:10:29;;;;;;;12.00;5.10;;;;;;;15.87;82.61;100721.79;105647;1273;548151;-49
2022/07/08 03:12:58;;;;;;;11.90;5.60;;;;;;;15.85;82.78;100723.87;105868;1273;22695;-50
2022/07/08 03:15:27;;;;;;;10.90;5.60;;;;;;;15.86;82.83;100725.58;106036;1273;22564;-55
2022/07/08 03:17:56;;;;;;;11.00;5.50;;;;;;;15.85;83.01;100733.60;105559;1273;22586;-52
2022/07/08 03:20:26;;;;;;;13.90;6.00;;;;;;;15.86;83.41;100728.44;105689;1274;24246;-51
2022/07/08 03:22:55;;;;;;;11.80;6.40;;;;;;;15.86;83.44;100730.59;105761;1273;23536;-52
2022/07/08 03:25:23;;;;;;;13.30;7.10;;;;;;;15.86;83.53;100724.48;105892;1274;23127;-52
2022/07/08 03:27:53;;;;;;;11.50;5.30;;;;;;;15.87;83.62;100728.80;106135;1273;22701;-53
2022/07/08 03:30:21;;;;;;;10.70;4.80;;;;;;;15.87;83.83;100728.65;106283;1265;22665;-62
2022/07/08 03:32:50;;;;;;;13.80;5.60;;;;;;;15.87;84.04;100726.91;105764;1273;24447;-62
2022/07/08 03:35:20;;;;;;;11.70;5.40;;;;;;;15.86;84.05;100732.84;105839;1272;22580;-62
2022/07/08 03:37:49;;;;;;;11.80;6.10;;;;;;;15.85;84.27;100740.71;105760;1273;22545;-62
2022/07/08 03:43:04;;;;;;;12.40;6.00;;;;;;;15.85;84.72;100752.34;105775;1273;22547;-63
2022/07/08 03:45:33;;;;;;;12.80;5.60;;;;;;;15.83;84.82;100754.69;105947;1273;25362;-61
2022/07/08 03:48:03;;;;;;;12.50;6.00;;;;;;;15.83;85.08;100764.10;106032;1273;24277;-62
2022/07/08 03:50:30;;;;;;;;;;;;;;;15.82;85.34;100766.72;105944;1273;22685;-61
2022/07/08 03:52:59;;;;;;;12.80;6.00;;;;;;;15.81;85.59;100767.30;105739;1273;22622;-63
2022/07/08 03:55:28;;;;;;;12.60;6.20;;;;;;;15.80;85.91;100767.15;105856;1273;22583;-62
2022/07/08 03:57:58;;;;;;;10.10;5.80;;;;;;;15.80;86.31;100771.50;105789;1273;23967;-62
2022/07/08 04:00:26;;;;;;;11.40;5.50;;;;;;;15.80;86.18;100775.29;106069;1273;25267;-61
2022/07/08 04:02:56;;;;;;;12.20;5.10;;;;;;;15.82;86.23;100779.23;105782;1273;23310;-62
2022/07/08 04:05:24;;;;;;;11.90;6.10;;;;;;;15.83;86.21;100781.34;105786;1273;26529;-61
2022/07/08 04:07:54;;;;;;;12.80;5.90;;;;;;;15.83;86.25;100782.84;105681;1273;22535;-61
2022/07/08 04:10:23;;;;;;;12.50;6.20;;;;;;;15.85;86.50;100786.59;105691;1273;25309;-62
2022/07/08 04:12:51;;;;;;;10.70;5.60;;;;;;;15.85;86.57;100788.07;105825;1273;22646;-62
2022/07/08 04:15:21;;;;;;;12.30;5.60;;;;;;;15.87;86.73;100793.09;105753;1273;25650;-62
2022/07/08 04:17:49;;;;;;;12.20;5.80;;;;;;;15.89;87.12;100796.13;105751;1273;22587;-62
2022/07/08 04:20:19;;;;;;;12.70;5.90;;;;;;;15.90;87.57;100799.97;105723;1273;22544;-63
2022/07/08 04:22:47;;;;;;;11.60;5.60;;;;;;;15.91;87.49;100805.30;105854;1273;22606;-62
2022/07/08 04:25:16;;;;;;;9.10;4.40;;;;;;;15.93;87.47;100807.11;105789;1273;23398;-62
2022/07/08 04:27:45;;;;;;;9.30;4.70;;;;;;;15.95;87.52;100808.76;105797;1273;24259;-61
2022/07/08 04:30:14;;;;;;;10.20;4.30;;;;;;;15.97;87.27;100816.45;105875;1273;22710;-62
2022/07/08 04:32:43;;;;;;;9.10;4.10;;;;;;;15.98;87.29;100815.07;105721;1273;22561;-62
2022/07/08 04:35:12;;;;;;;11.20;4.60;;;;;;;15.99;87.16;100818.10;105756;1273;24324;-63
2022/07/08 04:37:41;;;;;;;8.00;3.20;;;;;;;16.00;86.94;100822.41;105843;1273;22551;-62
2022/07/08 04:40:12;;;;;;;14.70;3.90;;;;;;;16.00;86.74;100823.84;105743;1273;24323;-61
2022/07/08 04:42:41;;;;;;;8.90;2.90;;;;;;;16.00;86.37;100820.93;105743;1273;22583;-60
2022/07/08 04:45:12;;;;;;;7.70;2.80;;;;;;;16.01;86.37;100831.69;105756;1272;25559;-62
2022/07/08 04:47:41;;;;;;;7.30;2.80;;;;;;;16.01;86.31;100833.74;105696;1273;24713;-61
2022/07/08 04:50:10;;;;;;;7.70;2.90;;;;;;;16.02;86.37;100834.09;105862;1273;24269;-62
2022/07/08 04:52:39;;;;;;;10.20;2.70;;;;;;;16.02;86.15;100834.50;105832;1273;26530;-61
2022/07/08 04:55:27;;;;;;;8.50;3.00;;;;;;;16.03;86.21;100835.59;106014;1273;22582;-61
2022/07/08 04:57:58;;;;;;;7.90;2.20;;;;;;;16.04;85.96;100839.85;105766;1273;22558;-61
2022/07/08 05:00:26;;;;;;;;;;;;;;;16.05;85.95;100841.23;105852;1273;25246;-62
2022/07/08 05:02:55;;;;;;;5.90;2.10;;;;;;;16.05;85.92;100846.71;105829;1273;26546;-63
2022/07/08 05:05:24;;;;;;;5.80;1.70;;;;;;;16.05;85.78;100846.41;105755;1273;25384;-61
2022/07/08 05:07:54;;;;;;;5.20;2.20;;;;;;;16.05;85.66;100851.48;105758;1273;22548;-62
2022/07/08 05:10:22;;;;;;;9.50;2.60;;;;;;;16.05;85.67;100861.02;105768;1273;22589;-61
2022/07/08 05:12:51;;;;;;;6.50;2.20;;;;;;;16.07;85.81;100865.98;105760;1273;23044;-62
2022/07/08 05:15:21;;;;;;;8.20;2.10;;;;;;;16.07;85.67;100861.02;105789;1273;22610;-60
2022/07/08 05:17:52;;;;;;;7.50;2.00;;;;;;;16.10;85.41;100864.16;105769;1273;25339;-62
2022/07/08 05:20:21;;;;;;;5.00;1.70;;;;;;;16.11;85.20;100866.06;105790;1273;22563;-63
2022/07/08 05:22:50;;;;;;;6.80;2.20;;;;;;;16.15;85.20;100873.81;105893;1273;24335;-62
2022/07/08 05:25:19;;;;;;;7.10;2.00;;;;;;;16.16;84.81;100879.98;105880;1273;24323;-62
2022/07/08 05:27:48;;;;;;;5.90;2.10;;;;;;;16.18;84.62;100877.33;106109;1273;24391;-61
2022/07/08 05:30:17;;;;;;;9.20;2.20;;;;;;;16.21;84.28;100885.08;105625;1273;25382;-63
2022/07/08 05:32:47;;;;;;;7.30;2.30;;;;;;;16.24;84.18;100882.94;105935;1273;22557;-63
2022/07/08 05:35:16;;;;;;;8.60;2.30;;;;;;;16.28;84.03;100889.88;105760;1273;22702;-62
2022/07/08 05:37:45;;;;;;;11.50;2.30;;;;;;;16.31;83.94;100886.87;105903;1273;22981;-64
2022/07/08 05:40:14;;;;;;;11.20;2.40;;;;;;;16.33;84.00;100889.60;105779;1273;22705;-61
2022/07/08 05:42:43;;;;;;;9.70;2.20;;;;;;;16.34;83.85;100892.13;105779;1273;23975;-61
2022/07/08 05:45:13;;;;;;;10.70;2.20;;;;;;;16.35;83.57;100892.02;105913;1273;22566;-63
2022/07/08 05:47:42;;;;;;;9.20;2.20;;;;;;;16.35;83.44;100891.66;105838;1273;24807;-60
2022/07/08 05:50:13;;;;;;;10.80;2.60;;;;;;;16.36;83.45;100899.77;105662;1273;22560;-62
2022/07/08 05:52:42;;;;;;;9.40;2.40;;;;;;;16.38;83.55;100895.38;105681;1273;25335;-62
2022/07/08 05:55:12;;;;;;;8.00;2.20;;;;;;;16.42;83.38;100902.71;105765;1273;24326;-62
2022/07/08 05:57:41;;;;;;;13.70;2.40;;;;;;;16.46;83.17;100901.98;105716;1273;25326;-60
2022/07/08 06:00:12;;;;;;;12.00;2.70;;;;;;;16.50;83.36;100905.35;105586;1273;22538;-60
2022/07/08 06:02:43;;;;;;;9.00;2.60;;;;;;;16.56;83.29;100910.52;105732;1273;23023;-62
2022/07/08 06:05:12;;;;;;;8.60;2.30;;;;;;;16.60;82.67;100909.62;105782;1273;25564;-61
2022/07/08 06:07:41;;;;;;;11.80;2.10;;;;;;;16.64;82.62;100907.94;105825;1273;22558;-62
2022/07/08 06:10:11;;;;;;;11.90;2.50;;;;;;;16.67;82.43;100912.88;105670;1273;22541;-62
2022/07/08 06:12:40;;;;;;;8.60;2.40;;;;;;;16.69;82.26;100918.43;105857;1273;26848;-62
2022/07/08 06:15:13;;;;;;;16.20;2.60;;;;;;;16.70;82.19;100918.48;105953;1273;25408;-62
2022/07/08 06:17:43;;;;;;;11.70;3.10;;;;;;;16.69;82.08;100928.37;105697;1273;22588;-63
2022/07/08 06:20:14;;;;;;;10.20;3.40;;;;;;;16.66;82.25;100928.92;105776;1273;22700;-61
2022/07/08 06:22:43;;;;;;;11.60;2.70;;;;;;;16.66;82.43;100928.51;105725;1273;22560;-63
2022/07/08 06:25:12;;;;;;;13.10;3.40;;;;;;;16.65;82.45;100926.30;105815;1273;22578;-63
2022/07/08 06:27:41;;;;;;;11.70;2.90;;;;;;;16.66;82.48;100930.11;105938;1273;24236;-62
2022/07/08 06:30:11;;;;;;;8.40;2.70;;;;;;;16.66;82.55;100932.45;106013;1273;24302;-62
2022/07/08 06:32:40;;;;;;;11.40;3.20;;;;;;;16.66;82.50;100929.48;106046;1273;22601;-61
2022/07/08 06:35:11;;;;;;;13.30;3.40;;;;;;;16.68;82.56;100931.08;105925;1273;24329;-61
2022/07/08 06:37:40;;;;;;;11.30;3.30;;;;;;;16.70;82.76;100934.79;105846;1273;22563;-62
2022/07/08 06:40:11;;;;;;;17.30;2.90;;;;;;;16.73;82.60;100931.86;105761;1273;22543;-62
2022/07/08 06:42:40;;;;;;;12.40;3.10;;;;;;;16.75;82.42;100939.95;105803;1273;22561;-63
2022/07/08 06:45:10;;;;;;;10.70;3.00;;;;;;;16.74;82.24;100942.03;105692;1273;25270;-63
2022/07/08 06:47:38;;;;;;;;;;;;;;;16.78;82.49;100935.59;105670;1273;22534;-62
2022/07/08 06:50:09;;;;;;;11.90;2.70;;;;;;;16.82;82.42;100943.56;105705;1273;25405;-63
2022/07/08 06:52:39;;;;;;;10.70;3.30;;;;;;;16.87;82.48;100944.50;105645;1273;24511;-62
2022/07/08 06:55:09;;;;;;;13.10;2.70;;;;;;;16.93;82.31;100943.30;105640;1273;24320;-62
2022/07/08 06:57:38;;;;;;;20.00;4.00;;;;;;;16.97;82.23;100941.67;105887;1273;22547;-63
2022/07/08 07:00:09;;;;;;;18.00;4.40;;;;;;;16.97;81.81;100939.17;105622;1273;22538;-62
2022/07/08 07:02:38;;;;;;;21.20;4.70;;;;;;;16.96;81.65;100945.78;105892;1273;22612;-63
2022/07/08 07:05:09;;;;;;;23.70;4.40;;;;;;;16.97;81.56;100944.64;105775;1273;22557;-62
2022/07/08 07:07:38;;;;;;;18.80;3.80;;;;;;;17.00;81.52;100944.52;105642;1273;22803;-62
2022/07/08 07:10:10;;;;;;;20.70;3.60;;;;;;;17.05;81.48;100945.24;105737;1273;22540;-61
2022/07/08 07:12:39;;;;;;;24.90;3.20;;;;;;;17.12;81.57;100947.12;105655;1273;22579;-62
2022/07/08 07:15:10;;;;;;;19.90;3.30;;;;;;;17.17;81.23;100954.08;105729;1273;22708;-61
2022/07/08 07:17:42;;;;;;;15.00;3.40;;;;;;;17.18;80.83;100954.58;105693;1273;22718;-62
2022/07/08 07:20:12;;;;;;;19.70;4.00;;;;;;;17.19;80.60;100957.70;105688;1273;22614;-62
2022/07/08 07:22:41;;;;;;;19.40;4.40;;;;;;;17.20;80.40;100961.20;105694;1273;25917;-61
2022/07/08 07:25:11;;;;;;;20.30;3.40;;;;;;;17.19;80.32;100958.54;105763;1273;24441;-61
2022/07/08 07:27:41;;;;;;;15.60;3.70;;;;;;;17.19;80.22;100962.02;105685;1273;25264;-62
2022/07/08 07:30:12;;;;;;;24.40;4.20;;;;;;;17.20;80.31;100959.27;105822;1273;24292;-61
2022/07/08 07:32:41;;;;;;;15.70;3.50;;;;;;;17.24;80.29;100961.33;105758;1273;24411;-62
2022/07/08 07:35:11;;;;;;;16.50;4.10;;;;;;;17.32;80.29;100965.20;105712;1273;25399;-62
2022/07/08 07:37:40;;;;;;;15.60;3.70;;;;;;;17.39;79.97;100962.64;105724;1273;25440;-62
2022/07/08 07:40:10;;;;;;;24.20;3.60;;;;;;;17.41;79.43;100970.25;105621;1273;25846;-62
2022/07/08 07:42:40;;;;;;;19.40;4.10;;;;;;;17.33;79.05;100981.94;105704;1273;24316;-62
2022/07/08 07:45:09;;;;;;;27.30;3.50;;;;;;;17.25;79.27;100984.52;105808;1273;22589;-61
2022/07/08 07:47:38;;;;;;;16.30;3.30;;;;;;;17.19;79.47;100986.14;105752;1273;22761;-63
2022/07/08 07:50:08;;;;;;;21.70;2.70;;;;;;;17.10;79.28;100985.43;105602;1273;22565;-62
2022/07/08 07:52:38;;;;;;;18.20;3.60;;;;;;;17.03;79.62;100989.61;105725;1273;24329;-62
2022/07/08 07:55:08;;;;;;;14.70;3.50;;;;;;;17.03;79.73;100992.23;105733;1273;25230;-61
2022/07/08 07:57:38;;;;;;;13.60;3.20;;;;;;;17.07;79.96;100993.92;105461;1273;22563;-62
2022/07/08 08:00:09;;;;;;;20.30;4.30;;;;;;;17.17;80.24;100995.92;106327;1273;25389;-61
2022/07/08 08:02:39;;;;;;;22.40;3.00;;;;;;;17.31;79.79;100994.96;105745;1273;22562;-62
2022/07/08 08:05:09;;;;;;;15.80;3.60;;;;;;;17.41;79.62;100994.47;105702;1273;24322;-61
2022/07/08 08:07:39;;;;;;;14.30;2.70;;;;;;;17.48;78.84;100990.80;105754;1273;22696;-63
2022/07/08 08:10:12;;;;;;;17.70;2.70;;;;;;;17.49;78.60;100994.76;105856;1273;22556;-62
2022/07/08 08:12:41;;;;;;;10.20;2.20;;;;;;;17.48;78.16;100996.86;105853;1272;22534;-62
2022/07/08 08:15:12;;;;;;;14.80;2.80;;;;;;;17.48;78.19;100999.73;105919;1273;25387;-62
2022/07/08 08:17:42;;;;;;;19.40;3.50;;;;;;;17.56;78.48;101003.33;105852;1273;25369;-62
2022/07/08 08:20:13;;;;;;;26.40;3.50;;;;;;;17.63;77.98;101003.34;106020;1273;24383;-63
2022/07/08 08:22:42;;;;;;;23.70;2.90;;;;;;;17.60;77.75;101009.48;105798;1273;22546;-62
2022/07/08 08:25:11;;;;;;;21.80;5.70;;;;;;;17.60;78.06;101012.58;105923;1273;24797;-62
2022/07/08 08:27:41;;;;;;;24.80;7.50;;;;;;;17.68;78.35;101009.88;105970;1273;24319;-62
2022/07/08 08:30:12;;;;;;;25.10;6.50;;;;;;;17.85;78.28;101008.05;105835;1273;22582;-62
2022/07/08 08:32:41;;;;;;;18.10;5.40;;;;;;;18.01;77.65;101008.59;105785;1273;22576;-63
2022/07/08 08:35:12;;;;;;;21.60;6.50;;;;;;;18.13;77.26;101005.42;105670;1273;23335;-62
2022/07/08 08:37:42;;;;;;;16.80;3.90;;;;;;;18.17;76.93;101006.30;105854;1273;25548;-62
2022/07/08 08:40:13;;;;;;;18.30;4.10;;;;;;;18.25;76.51;101005.48;106143;1273;22563;-61
2022/07/08 08:42:42;;;;;;;23.10;5.40;;;;;;;18.33;76.21;101009.22;105798;1273;22562;-62
2022/07/08 08:45:13;;;;;;;18.10;4.60;;;;;;;18.41;75.93;101009.23;105851;1273;22596;-62
2022/07/08 08:47:45;;;;;;;18.20;2.70;;;;;;;18.49;75.55;101012.69;105867;1273;24870;-62
2022/07/08 08:53:04;;;;;;;14.40;2.30;;;;;;;18.58;74.41;101007.79;105602;1273;24323;-62
2022/07/08 08:55:34;;;;;;;15.70;1.90;;;;;;;18.67;74.00;101009.36;105894;1273;25296;-63
2022/07/08 08:58:05;;;;;;;9.10;1.80;;;;;;;18.76;73.93;101010.48;105955;1274;22539;-62
2022/07/08 09:00:35;;;;;;;11.50;1.70;;;;;;;18.82;72.83;101011.09;105907;1273;25511;-64
2022/07/08 09:03:05;;;;;;;16.20;1.90;;;;;;;18.83;73.23;101013.25;106065;1273;22634;-63
2022/07/08 09:05:34;;;;;;;9.60;1.40;;;;;;;18.89;72.47;101016.77;105868;1273;23259;-63
2022/07/08 09:08:03;;;;;;;9.50;1.50;;;;;;;18.89;72.24;101014.97;105876;1273;22559;-63
2022/07/08 09:10:32;;;;;;;11.10;1.50;;;;;;;18.89;72.17;101016.00;105804;1273;22598;-63
2022/07/08 09:13:06;;;;;;;15.30;2.10;;;;;;;18.91;71.84;101013.31;106042;1273;24012;-63
2022/07/08 09:15:38;;;;;;;9.30;1.40;;;;;;;18.92;71.62;101012.50;105740;1273;24288;-62
2022/07/08 09:18:09;;;;;;;5.90;1.00;;;;;;;18.91;71.20;101017.18;105804;1273;22707;-66
2022/07/08 09:20:45;;;;;;;9.30;1.40;;;;;;;18.92;70.00;101016.81;105612;1273;25275;-62
2022/07/08 09:23:16;;;;;;;12.40;1.60;;;;;;;19.01;70.77;101003.22;105571;1273;24276;-65
2022/07/08 09:25:49;;;;;;;7.90;1.60;;;;;;;19.06;69.26;101013.58;105834;1273;24201;-64
2022/07/08 09:28:30;;;;;;;8.10;1.00;;;;;;;19.06;69.88;101005.55;105778;1273;22556;-62
2022/07/08 09:31:00;;;;;;;6.50;1.30;;;;;;;19.18;69.64;101005.36;105726;1273;24151;-62
2022/07/08 09:33:29;;;;;;;6.00;1.00;;;;;;;19.26;69.77;101001.88;105984;1273;22824;-63
2022/07/08 09:36:00;;;;;;;8.50;1.00;;;;;;;19.33;69.59;101000.13;105747;1273;24317;-63
2022/07/08 09:38:34;;;;;;;10.90;1.70;;;;;;;19.43;69.69;101000.55;105713;1273;22558;-63
2022/07/08 09:41:04;;;;;;;16.10;1.80;;;;;;;19.53;68.44;101009.14;105584;1274;22564;-62
2022/07/08 09:43:42;;;;;;;11.70;1.50;;;;;;;19.53;68.29;101001.94;105835;1274;24280;-63
2022/07/08 09:46:12;;;;;;;7.80;1.00;;;;;;;19.59;68.38;101003.65;105708;1274;22598;-64
2022/07/08 09:48:41;;;;;;;11.00;1.70;;;;;;;19.69;67.64;101003.59;105827;1273;22539;-64
2022/07/08 09:51:10;;;;;;;7.20;1.00;;;;;;;19.76;67.62;101000.15;105765;1273;24260;-63
2022/07/08 09:53:40;;;;;;;11.80;1.30;;;;;;;19.83;67.47;101002.99;105828;1273;24244;-64
2022/07/08 09:56:08;;;;;;;;;;;;;;;19.86;67.06;100999.40;105801;1273;22560;-64
2022/07/08 09:58:39;;;;;;;7.90;1.40;;;;;;;19.91;67.63;101000.27;105720;1273;22613;-63
2022/07/08 10:01:06;;;;;;;;;;;;;;;19.98;66.93;100999.94;105678;1273;24269;-63
2022/07/08 10:03:36;;;;;;;8.80;1.00;;;;;;;19.98;66.58;101000.66;105897;1274;22550;-64
2022/07/08 10:06:05;;;;;;;6.40;0.90;;;;;;;20.02;66.14;101007.29;105723;1274;22459;-63
2022/07/08 10:08:35;;;;;;;7.40;0.80;;;;;;;20.06;65.64;101004.82;105811;1273;24428;-63
2022/07/08 10:11:09;;;;;;;6.50;1.10;;;;;;;20.03;65.23;101005.21;106155;1273;23772;-65
2022/07/08 10:13:39;;;;;;;7.60;1.10;;;;;;;19.96;64.99;101012.16;105914;1273;22697;-63
2022/07/08 10:16:10;;;;;;;9.40;1.00;;;;;;;19.86;65.31;101010.44;105811;1273;22563;-63
2022/07/08 10:18:43;;;;;;;9.00;0.70;;;;;;;19.86;65.44;101010.27;105799;1276;22582;-63
2022/07/08 10:21:13;;;;;;;8.70;1.20;;;;;;;19.93;65.22;101009.01;105844;1273;22578;-63
2022/07/08 10:23:47;;;;;;;12.90;1.00;;;;;;;20.04;65.15;101012.16;106016;1273;23213;-64
2022/07/08 10:26:23;;;;;;;13.60;1.20;;;;;;;20.24;64.95;101011.47;105798;1273;23235;-63
2022/07/08 10:29:04;;;;;;;5.50;0.70;;;;;;;20.36;64.47;101011.93;106086;1273;22993;-62
2022/07/08 10:31:42;;;;;;;8.30;0.80;;;;;;;20.35;63.61;101013.19;105747;1273;23207;-64
2022/07/08 10:34:12;;;;;;;10.90;0.90;;;;;;;20.32;63.52;101019.88;105794;1273;25240;-63
2022/07/08 10:36:48;;;;;;;6.60;0.80;;;;;;;20.23;63.21;101014.73;105828;1273;22830;-63
2022/07/08 10:39:25;;;;;;;7.60;1.20;;;;;;;20.18;63.24;101017.23;105742;1273;25532;-63
2022/07/08 10:41:59;;;;;;;6.00;0.80;;;;;;;20.15;63.68;101020.93;105629;1273;24435;-62
2022/07/08 10:44:52;;;;;;;7.40;0.90;;;;;;;20.29;63.62;101012.62;105961;1273;22541;-63
2022/07/08 10:47:28;;;;;;;5.50;0.70;;;;;;;20.44;62.98;101019.09;105844;1273;24300;-63
2022/07/08 10:50:06;;;;;;;7.80;0.90;;;;;;;20.47;63.02;101012.36;105622;1273;25496;-63
2022/07/08 10:52:40;;;;;;;9.90;1.00;;;;;;;20.49;62.45;101017.29;105710;1273;22564;-64
2022/07/08 10:55:11;;;;;;;11.10;1.10;;;;;;;20.49;61.98;101015.28;105798;1273;24326;-62
2022/07/08 10:57:52;;;;;;;7.70;0.80;;;;;;;20.50;61.75;101011.98;105645;1273;24265;-63
2022/07/08 11:00:22;;;;;;;5.60;0.80;;;;;;;20.49;61.43;101014.45;105743;1273;22545;-63
2022/07/08 11:02:52;;;;;;;5.30;0.70;;;;;;;20.55;61.16;101003.77;105621;1273;22641;-63
2022/07/08 11:05:38;;;;;;;5.50;0.70;;;;;;;20.62;60.97;101004.02;105833;1273;24299;-63
2022/07/08 11:08:26;;;;;;;13.80;0.90;;;;;;;20.66;60.52;101012.17;105629;1274;22552;-64
2022/07/08 11:10:56;;;;;;;5.80;0.50;;;;;;;20.69;59.45;101012.52;105766;1273;22542;-62
2022/07/08 11:13:25;;;;;;;;;;;;;;;20.73;58.16;101012.88;105709;1273;22535;-63
2022/07/08 11:15:54;;;;;;;7.40;0.60;;;;;;;20.72;57.91;101024.19;105874;1273;22665;-62
2022/07/08 11:18:25;;;;;;;6.00;0.60;;;;;;;20.66;58.19;101019.30;105759;1273;24457;-63
2022/07/08 11:21:00;;;;;;;6.20;0.60;;;;;;;20.62;58.98;101023.83;105645;1275;25516;-63
2022/07/08 11:23:30;;;;;;;5.50;1.00;;;;;;;20.65;59.44;101019.66;105719;1275;22763;-63
2022/07/08 11:25:59;;;;;;;9.50;0.80;;;;;;;20.70;59.34;101013.42;105721;1273;24387;-63
2022/07/08 11:28:28;;;;;;;7.50;0.90;;;;;;;20.76;59.56;101010.89;105912;1273;22713;-63
2022/07/08 11:30:59;;;;;;;3.20;0.60;;;;;;;20.82;59.52;101008.45;105937;1273;22560;-64
2022/07/08 11:33:48;;;;;;;6.20;0.80;;;;;;;20.90;58.95;101014.55;105948;1273;23371;-63
2022/07/08 11:36:19;;;;;;;5.60;0.70;;;;;;;20.84;58.41;101013.89;105571;1273;22560;-63